sensor_id;sensor_type;location;lat;lon;timestamp;P1;durP1;ratioP1;P2;durP2;ratioP2
3280;SDS011;1652;51.318;6.202;2023-04-24T00:01:36;4.63;;;4.43;;
3280;SDS011;1652;51.318;6.202;2023-04-24T00:04:06;3.83;;;3.10;;
3280;SDS011;1652;51.318;6.202;2023-04-24T00:06:37;3.00;;;2.80;;
3280;SDS011;1652;51.318;6.202;2023-04-24T00:09:04;3.17;;;2.93;;
3280;SDS011;1652;51.318;6.202;2023-04-24T00:11:31;3.10;;;2.90;;
3280;SDS011;1652;51.318;6.202;2023-04-24T00:13:58;5.63;;;3.27;;
3280;SDS011;1652;51.318;6.202;2023-04-24T00:16:25;4.20;;;3.23;;
3280;SDS011;1652;51.318;6.202;2023-04-24T00:18:52;10.70;;;3.97;;
3280;SDS011;1652;51.318;6.202;2023-04-24T00:21:19;3.73;;;3.43;;
3280;SDS011;1652;51.318;6.202;2023-04-24T00:23:47;4.03;;;3.77;;
3280;SDS011;1652;51.318;6.202;2023-04-24T00:26:14;4.90;;;4.43;;
3280;SDS011;1652;51.318;6.202;2023-04-24T00:28:41;4.70;;;4.27;;
3280;SDS011;1652;51.318;6.202;2023-04-24T00:31:07;4.60;;;4.20;;
3280;SDS011;1652;51.318;6.202;2023-04-24T00:33:34;5.87;;;4.70;;
3280;SDS011;1652;51.318;6.202;2023-04-24T00:36:02;4.40;;;4.10;;
3280;SDS011;1652;51.318;6.202;2023-04-24T00:38:29;5.30;;;4.97;;
3280;SDS011;1652;51.318;6.202;2023-04-24T00:40:55;4.77;;;4.37;;
3280;SDS011;1652;51.318;6.202;2023-04-24T00:43:22;4.80;;;4.50;;
3280;SDS011;1652;51.318;6.202;2023-04-24T00:45:49;5.53;;;5.03;;
3280;SDS011;1652;51.318;6.202;2023-04-24T00:48:16;5.60;;;5.20;;
3280;SDS011;1652;51.318;6.202;2023-04-24T00:50:44;8.63;;;7.77;;
3280;SDS011;1652;51.318;6.202;2023-04-24T00:53:11;5.70;;;5.20;;
3280;SDS011;1652;51.318;6.202;2023-04-24T00:55:38;6.20;;;5.70;;
3280;SDS011;1652;51.318;6.202;2023-04-24T00:58:05;5.53;;;5.13;;
3280;SDS011;1652;51.318;6.202;2023-04-24T01:00:32;7.43;;;5.70;;
3280;SDS011;1652;51.318;6.202;2023-04-24T01:03:00;6.40;;;5.80;;
3280;SDS011;1652;51.318;6.202;2023-04-24T01:05:30;5.50;;;5.10;;
3280;SDS011;1652;51.318;6.202;2023-04-24T01:07:57;6.17;;;5.60;;
3280;SDS011;1652;51.318;6.202;2023-04-24T01:10:25;7.17;;;6.17;;
3280;SDS011;1652;51.318;6.202;2023-04-24T01:12:55;6.87;;;6.07;;
3280;SDS011;1652;51.318;6.202;2023-04-24T01:15:22;6.00;;;5.50;;
3280;SDS011;1652;51.318;6.202;2023-04-24T01:17:49;6.07;;;5.70;;
3280;SDS011;1652;51.318;6.202;2023-04-24T01:20:16;5.07;;;4.67;;
3280;SDS011;1652;51.318;6.202;2023-04-24T01:22:43;6.10;;;5.67;;
3280;SDS011;1652;51.318;6.202;2023-04-24T01:25:10;8.43;;;5.60;;
3280;SDS011;1652;51.318;6.202;2023-04-24T01:27:37;6.70;;;6.10;;
3280;SDS011;1652;51.318;6.202;2023-04-24T01:30:05;5.73;;;5.30;;
3280;SDS011;1652;51.318;6.202;2023-04-24T01:32:33;7.63;;;5.30;;
3280;SDS011;1652;51.318;6.202;2023-04-24T01:35:01;6.80;;;5.80;;
3280;SDS011;1652;51.318;6.202;2023-04-24T01:37:28;6.63;;;6.13;;
3280;SDS011;1652;51.318;6.202;2023-04-24T01:39:55;7.70;;;6.90;;
3280;SDS011;1652;51.318;6.202;2023-04-24T01:42:22;12.03;;;7.00;;
3280;SDS011;1652;51.318;6.202;2023-04-24T01:44:49;8.17;;;6.80;;
3280;SDS011;1652;51.318;6.202;2023-04-24T01:47:17;10.90;;;6.57;;
3280;SDS011;1652;51.318;6.202;2023-04-24T01:49:44;11.33;;;7.00;;
3280;SDS011;1652;51.318;6.202;2023-04-24T01:52:14;12.50;;;8.03;;
3280;SDS011;1652;51.318;6.202;2023-04-24T01:54:41;8.40;;;7.50;;
3280;SDS011;1652;51.318;6.202;2023-04-24T01:57:08;9.50;;;7.77;;
3280;SDS011;1652;51.318;6.202;2023-04-24T01:59:35;8.47;;;7.53;;
3280;SDS011;1652;51.318;6.202;2023-04-24T02:02:02;10.57;;;7.67;;
3280;SDS011;1652;51.318;6.202;2023-04-24T02:04:30;15.90;;;8.90;;
3280;SDS011;1652;51.318;6.202;2023-04-24T02:06:56;12.00;;;8.50;;
3280;SDS011;1652;51.318;6.202;2023-04-24T02:09:24;18.47;;;9.73;;
3280;SDS011;1652;51.318;6.202;2023-04-24T02:11:51;20.73;;;9.37;;
3280;SDS011;1652;51.318;6.202;2023-04-24T02:14:18;15.83;;;9.77;;
3280;SDS011;1652;51.318;6.202;2023-04-24T02:16:45;12.53;;;9.47;;
3280;SDS011;1652;51.318;6.202;2023-04-24T02:19:12;14.50;;;8.60;;
3280;SDS011;1652;51.318;6.202;2023-04-24T02:21:39;15.10;;;9.70;;
3280;SDS011;1652;51.318;6.202;2023-04-24T02:24:06;17.63;;;9.27;;
3280;SDS011;1652;51.318;6.202;2023-04-24T02:26:32;16.33;;;9.83;;
3280;SDS011;1652;51.318;6.202;2023-04-24T02:28:59;13.47;;;9.07;;
3280;SDS011;1652;51.318;6.202;2023-04-24T02:31:26;26.93;;;10.87;;
3280;SDS011;1652;51.318;6.202;2023-04-24T02:33:53;12.53;;;9.20;;
3280;SDS011;1652;51.318;6.202;2023-04-24T02:36:20;14.27;;;9.60;;
3280;SDS011;1652;51.318;6.202;2023-04-24T02:38:47;11.20;;;10.00;;
3280;SDS011;1652;51.318;6.202;2023-04-24T02:41:14;13.23;;;10.10;;
3280;SDS011;1652;51.318;6.202;2023-04-24T02:43:41;15.07;;;10.50;;
3280;SDS011;1652;51.318;6.202;2023-04-24T02:46:08;18.50;;;10.83;;
3280;SDS011;1652;51.318;6.202;2023-04-24T02:48:35;18.93;;;10.30;;
3280;SDS011;1652;51.318;6.202;2023-04-24T02:51:02;19.43;;;10.83;;
3280;SDS011;1652;51.318;6.202;2023-04-24T02:53:29;14.27;;;10.27;;
3280;SDS011;1652;51.318;6.202;2023-04-24T02:55:56;17.03;;;9.80;;
3280;SDS011;1652;51.318;6.202;2023-04-24T02:58:23;13.60;;;10.20;;
3280;SDS011;1652;51.318;6.202;2023-04-24T03:00:54;11.10;;;9.50;;
3280;SDS011;1652;51.318;6.202;2023-04-24T03:03:22;22.03;;;10.70;;
3280;SDS011;1652;51.318;6.202;2023-04-24T03:05:51;13.77;;;9.27;;
3280;SDS011;1652;51.318;6.202;2023-04-24T03:08:18;18.03;;;10.17;;
3280;SDS011;1652;51.318;6.202;2023-04-24T03:10:45;14.73;;;10.10;;
3280;SDS011;1652;51.318;6.202;2023-04-24T03:13:13;19.50;;;8.93;;
3280;SDS011;1652;51.318;6.202;2023-04-24T03:15:41;18.90;;;9.83;;
3280;SDS011;1652;51.318;6.202;2023-04-24T03:18:08;10.77;;;9.50;;
3280;SDS011;1652;51.318;6.202;2023-04-24T03:20:35;16.17;;;9.70;;
3280;SDS011;1652;51.318;6.202;2023-04-24T03:23:03;23.90;;;10.80;;
3280;SDS011;1652;51.318;6.202;2023-04-24T03:25:30;16.53;;;10.63;;
3280;SDS011;1652;51.318;6.202;2023-04-24T03:27:57;16.17;;;9.40;;
3280;SDS011;1652;51.318;6.202;2023-04-24T03:30:24;11.03;;;8.83;;
3280;SDS011;1652;51.318;6.202;2023-04-24T03:32:51;19.30;;;10.97;;
3280;SDS011;1652;51.318;6.202;2023-04-24T03:35:18;17.70;;;10.00;;
3280;SDS011;1652;51.318;6.202;2023-04-24T03:37:45;14.80;;;9.53;;
3280;SDS011;1652;51.318;6.202;2023-04-24T03:40:12;15.80;;;9.50;;
3280;SDS011;1652;51.318;6.202;2023-04-24T03:42:39;13.93;;;9.70;;
3280;SDS011;1652;51.318;6.202;2023-04-24T03:45:06;11.60;;;9.30;;
3280;SDS011;1652;51.318;6.202;2023-04-24T03:47:33;11.80;;;9.60;;
3280;SDS011;1652;51.318;6.202;2023-04-24T03:50:00;17.37;;;9.20;;
3280;SDS011;1652;51.318;6.202;2023-04-24T03:52:27;17.80;;;9.30;;
3280;SDS011;1652;51.318;6.202;2023-04-24T03:54:54;10.33;;;8.30;;
3280;SDS011;1652;51.318;6.202;2023-04-24T03:57:21;10.87;;;8.10;;
3280;SDS011;1652;51.318;6.202;2023-04-24T03:59:48;10.03;;;8.73;;
3280;SDS011;1652;51.318;6.202;2023-04-24T04:02:15;11.93;;;9.90;;
3280;SDS011;1652;51.318;6.202;2023-04-24T04:04:42;10.43;;;9.33;;
3280;SDS011;1652;51.318;6.202;2023-04-24T04:07:09;9.80;;;8.00;;
3280;SDS011;1652;51.318;6.202;2023-04-24T04:09:37;8.77;;;7.50;;
3280;SDS011;1652;51.318;6.202;2023-04-24T04:12:04;18.20;;;8.40;;
3280;SDS011;1652;51.318;6.202;2023-04-24T04:14:31;10.43;;;7.43;;
3280;SDS011;1652;51.318;6.202;2023-04-24T04:16:58;10.80;;;7.07;;
3280;SDS011;1652;51.318;6.202;2023-04-24T04:19:25;9.73;;;7.20;;
3280;SDS011;1652;51.318;6.202;2023-04-24T04:21:51;9.87;;;7.23;;
3280;SDS011;1652;51.318;6.202;2023-04-24T04:24:19;8.90;;;7.30;;
3280;SDS011;1652;51.318;6.202;2023-04-24T04:26:50;8.60;;;7.67;;
3280;SDS011;1652;51.318;6.202;2023-04-24T04:29:18;9.13;;;6.30;;
3280;SDS011;1652;51.318;6.202;2023-04-24T04:31:45;10.93;;;7.20;;
3280;SDS011;1652;51.318;6.202;2023-04-24T04:34:12;9.97;;;6.70;;
3280;SDS011;1652;51.318;6.202;2023-04-24T04:36:40;7.67;;;7.00;;
3280;SDS011;1652;51.318;6.202;2023-04-24T04:39:08;10.50;;;7.60;;
3280;SDS011;1652;51.318;6.202;2023-04-24T04:41:35;9.17;;;7.30;;
3280;SDS011;1652;51.318;6.202;2023-04-24T04:44:01;8.00;;;6.90;;
3280;SDS011;1652;51.318;6.202;2023-04-24T04:46:31;8.27;;;7.20;;
3280;SDS011;1652;51.318;6.202;2023-04-24T04:49:01;13.03;;;7.17;;
3280;SDS011;1652;51.318;6.202;2023-04-24T04:51:28;10.70;;;7.10;;
3280;SDS011;1652;51.318;6.202;2023-04-24T04:53:55;9.33;;;7.97;;
3280;SDS011;1652;51.318;6.202;2023-04-24T04:56:22;10.10;;;9.03;;
3280;SDS011;1652;51.318;6.202;2023-04-24T04:58:49;9.50;;;8.50;;
3280;SDS011;1652;51.318;6.202;2023-04-24T05:01:16;8.50;;;7.77;;
3280;SDS011;1652;51.318;6.202;2023-04-24T05:03:43;12.10;;;8.40;;
3280;SDS011;1652;51.318;6.202;2023-04-24T05:06:10;9.67;;;7.10;;
3280;SDS011;1652;51.318;6.202;2023-04-24T05:08:37;9.50;;;7.43;;
3280;SDS011;1652;51.318;6.202;2023-04-24T05:11:05;10.17;;;8.70;;
3280;SDS011;1652;51.318;6.202;2023-04-24T05:13:32;9.00;;;8.03;;
3280;SDS011;1652;51.318;6.202;2023-04-24T05:16:06;10.60;;;6.83;;
3280;SDS011;1652;51.318;6.202;2023-04-24T05:18:33;8.33;;;7.53;;
3280;SDS011;1652;51.318;6.202;2023-04-24T05:21:00;9.33;;;8.03;;
3280;SDS011;1652;51.318;6.202;2023-04-24T05:23:27;12.60;;;8.03;;
3280;SDS011;1652;51.318;6.202;2023-04-24T05:25:54;8.33;;;7.63;;
3280;SDS011;1652;51.318;6.202;2023-04-24T05:28:21;9.67;;;8.70;;
3280;SDS011;1652;51.318;6.202;2023-04-24T05:30:48;12.47;;;8.43;;
3280;SDS011;1652;51.318;6.202;2023-04-24T05:33:16;9.97;;;8.50;;
3280;SDS011;1652;51.318;6.202;2023-04-24T05:35:42;10.73;;;8.27;;
3280;SDS011;1652;51.318;6.202;2023-04-24T05:38:13;19.43;;;8.70;;
3280;SDS011;1652;51.318;6.202;2023-04-24T05:40:40;13.03;;;7.23;;
3280;SDS011;1652;51.318;6.202;2023-04-24T05:43:07;10.80;;;8.77;;
3280;SDS011;1652;51.318;6.202;2023-04-24T05:45:34;9.33;;;8.50;;
3280;SDS011;1652;51.318;6.202;2023-04-24T05:48:02;8.83;;;7.93;;
3280;SDS011;1652;51.318;6.202;2023-04-24T05:50:29;8.13;;;7.33;;
3280;SDS011;1652;51.318;6.202;2023-04-24T05:52:56;10.57;;;8.67;;
3280;SDS011;1652;51.318;6.202;2023-04-24T05:55:28;6.87;;;6.30;;
3280;SDS011;1652;51.318;6.202;2023-04-24T05:57:55;9.50;;;7.60;;
3280;SDS011;1652;51.318;6.202;2023-04-24T06:00:23;13.80;;;8.43;;
3280;SDS011;1652;51.318;6.202;2023-04-24T06:02:50;9.03;;;7.17;;
3280;SDS011;1652;51.318;6.202;2023-04-24T06:05:19;9.00;;;8.10;;
3280;SDS011;1652;51.318;6.202;2023-04-24T06:07:47;7.80;;;7.13;;
3280;SDS011;1652;51.318;6.202;2023-04-24T06:10:14;8.13;;;7.20;;
3280;SDS011;1652;51.318;6.202;2023-04-24T06:12:41;9.60;;;7.60;;
3280;SDS011;1652;51.318;6.202;2023-04-24T06:17:40;7.43;;;6.70;;
3280;SDS011;1652;51.318;6.202;2023-04-24T06:20:07;7.30;;;6.57;;
3280;SDS011;1652;51.318;6.202;2023-04-24T06:22:34;5.97;;;5.43;;
3280;SDS011;1652;51.318;6.202;2023-04-24T06:25:01;5.80;;;5.40;;
3280;SDS011;1652;51.318;6.202;2023-04-24T06:27:28;5.57;;;5.27;;
3280;SDS011;1652;51.318;6.202;2023-04-24T06:29:55;4.70;;;4.40;;
3280;SDS011;1652;51.318;6.202;2023-04-24T06:32:22;4.90;;;4.50;;
3280;SDS011;1652;51.318;6.202;2023-04-24T06:34:51;6.90;;;4.70;;
3280;SDS011;1652;51.318;6.202;2023-04-24T06:37:19;7.17;;;4.70;;
3280;SDS011;1652;51.318;6.202;2023-04-24T06:39:46;11.03;;;8.90;;
3280;SDS011;1652;51.318;6.202;2023-04-24T06:42:13;7.67;;;6.00;;
3280;SDS011;1652;51.318;6.202;2023-04-24T06:44:41;6.63;;;5.87;;
3280;SDS011;1652;51.318;6.202;2023-04-24T06:47:08;7.53;;;5.30;;
3280;SDS011;1652;51.318;6.202;2023-04-24T06:49:39;3.40;;;3.17;;
3280;SDS011;1652;51.318;6.202;2023-04-24T06:52:07;2.87;;;2.67;;
3280;SDS011;1652;51.318;6.202;2023-04-24T06:54:34;6.20;;;3.13;;
3280;SDS011;1652;51.318;6.202;2023-04-24T06:57:01;2.23;;;2.13;;
3280;SDS011;1652;51.318;6.202;2023-04-24T06:59:29;2.30;;;2.20;;
3280;SDS011;1652;51.318;6.202;2023-04-24T07:01:56;2.07;;;1.97;;
3280;SDS011;1652;51.318;6.202;2023-04-24T07:04:23;2.77;;;2.63;;
3280;SDS011;1652;51.318;6.202;2023-04-24T07:06:52;2.57;;;1.77;;
3280;SDS011;1652;51.318;6.202;2023-04-24T07:09:22;1.90;;;1.80;;
3280;SDS011;1652;51.318;6.202;2023-04-24T07:11:51;1.67;;;1.57;;
3280;SDS011;1652;51.318;6.202;2023-04-24T07:14:19;2.37;;;2.17;;
3280;SDS011;1652;51.318;6.202;2023-04-24T07:16:47;6.00;;;3.43;;
3280;SDS011;1652;51.318;6.202;2023-04-24T07:19:14;2.07;;;1.97;;
3280;SDS011;1652;51.318;6.202;2023-04-24T07:21:41;1.50;;;1.40;;
3280;SDS011;1652;51.318;6.202;2023-04-24T07:24:08;2.80;;;2.70;;
3280;SDS011;1652;51.318;6.202;2023-04-24T07:26:39;7.70;;;4.07;;
3280;SDS011;1652;51.318;6.202;2023-04-24T07:29:06;3.60;;;3.20;;
3280;SDS011;1652;51.318;6.202;2023-04-24T07:31:34;4.37;;;4.10;;
3280;SDS011;1652;51.318;6.202;2023-04-24T07:34:01;3.60;;;3.50;;
3280;SDS011;1652;51.318;6.202;2023-04-24T07:36:28;4.20;;;4.00;;
3280;SDS011;1652;51.318;6.202;2023-04-24T07:38:55;4.80;;;3.50;;
3280;SDS011;1652;51.318;6.202;2023-04-24T07:41:25;3.63;;;2.83;;
3280;SDS011;1652;51.318;6.202;2023-04-24T07:43:53;3.17;;;3.07;;
3280;SDS011;1652;51.318;6.202;2023-04-24T07:46:20;3.43;;;3.17;;
3280;SDS011;1652;51.318;6.202;2023-04-24T07:48:47;3.63;;;3.40;;
3280;SDS011;1652;51.318;6.202;2023-04-24T07:51:27;2.73;;;2.63;;
3280;SDS011;1652;51.318;6.202;2023-04-24T07:53:54;6.20;;;4.40;;
3280;SDS011;1652;51.318;6.202;2023-04-24T07:56:21;5.50;;;5.00;;
3280;SDS011;1652;51.318;6.202;2023-04-24T07:58:48;5.30;;;5.00;;
3280;SDS011;1652;51.318;6.202;2023-04-24T08:01:15;7.53;;;6.80;;
3280;SDS011;1652;51.318;6.202;2023-04-24T08:03:42;8.13;;;7.33;;
3280;SDS011;1652;51.318;6.202;2023-04-24T08:06:09;8.03;;;7.23;;
3280;SDS011;1652;51.318;6.202;2023-04-24T08:08:36;13.13;;;10.00;;
3280;SDS011;1652;51.318;6.202;2023-04-24T08:11:03;15.80;;;11.07;;
3280;SDS011;1652;51.318;6.202;2023-04-24T08:13:30;16.03;;;11.47;;
3280;SDS011;1652;51.318;6.202;2023-04-24T08:15:57;16.73;;;11.37;;
3280;SDS011;1652;51.318;6.202;2023-04-24T08:18:24;16.30;;;11.70;;
3280;SDS011;1652;51.318;6.202;2023-04-24T08:20:51;18.30;;;14.27;;
3280;SDS011;1652;51.318;6.202;2023-04-24T08:23:18;18.80;;;10.47;;
3280;SDS011;1652;51.318;6.202;2023-04-24T08:25:45;10.70;;;8.87;;
3280;SDS011;1652;51.318;6.202;2023-04-24T08:28:12;16.80;;;9.50;;
3280;SDS011;1652;51.318;6.202;2023-04-24T08:30:42;10.20;;;9.10;;
3280;SDS011;1652;51.318;6.202;2023-04-24T08:33:09;13.63;;;9.27;;
3280;SDS011;1652;51.318;6.202;2023-04-24T08:35:36;13.80;;;9.90;;
3280;SDS011;1652;51.318;6.202;2023-04-24T08:38:03;14.23;;;9.10;;
3280;SDS011;1652;51.318;6.202;2023-04-24T08:40:30;15.90;;;9.40;;
3280;SDS011;1652;51.318;6.202;2023-04-24T08:43:00;11.20;;;9.50;;
3280;SDS011;1652;51.318;6.202;2023-04-24T08:45:27;12.50;;;9.33;;
3280;SDS011;1652;51.318;6.202;2023-04-24T08:47:54;12.97;;;9.53;;
3280;SDS011;1652;51.318;6.202;2023-04-24T08:50:22;11.80;;;8.50;;
3280;SDS011;1652;51.318;6.202;2023-04-24T08:52:50;8.63;;;7.93;;
3280;SDS011;1652;51.318;6.202;2023-04-24T08:55:19;17.20;;;8.07;;
3280;SDS011;1652;51.318;6.202;2023-04-24T08:57:51;12.83;;;7.87;;
3280;SDS011;1652;51.318;6.202;2023-04-24T09:00:19;9.30;;;7.97;;
3280;SDS011;1652;51.318;6.202;2023-04-24T09:02:48;11.57;;;8.80;;
3280;SDS011;1652;51.318;6.202;2023-04-24T09:05:17;12.80;;;9.00;;
3280;SDS011;1652;51.318;6.202;2023-04-24T09:07:49;10.00;;;8.10;;
3280;SDS011;1652;51.318;6.202;2023-04-24T09:10:19;9.43;;;8.43;;
3280;SDS011;1652;51.318;6.202;2023-04-24T09:12:51;14.30;;;7.90;;
3280;SDS011;1652;51.318;6.202;2023-04-24T09:15:19;21.10;;;9.20;;
3280;SDS011;1652;51.318;6.202;2023-04-24T09:17:47;8.87;;;7.43;;
3280;SDS011;1652;51.318;6.202;2023-04-24T09:20:14;22.10;;;9.17;;
3280;SDS011;1652;51.318;6.202;2023-04-24T09:22:41;18.77;;;10.07;;
3280;SDS011;1652;51.318;6.202;2023-04-24T09:25:09;25.77;;;9.60;;
3280;SDS011;1652;51.318;6.202;2023-04-24T09:27:42;13.43;;;9.70;;
3280;SDS011;1652;51.318;6.202;2023-04-24T09:30:11;18.50;;;10.03;;
3280;SDS011;1652;51.318;6.202;2023-04-24T09:32:38;17.67;;;10.40;;
3280;SDS011;1652;51.318;6.202;2023-04-24T09:35:06;19.47;;;9.00;;
3280;SDS011;1652;51.318;6.202;2023-04-24T09:37:35;25.10;;;10.20;;
3280;SDS011;1652;51.318;6.202;2023-04-24T09:40:19;15.47;;;9.23;;
3280;SDS011;1652;51.318;6.202;2023-04-24T09:42:53;21.63;;;9.37;;
3280;SDS011;1652;51.318;6.202;2023-04-24T09:45:27;19.00;;;8.53;;
3280;SDS011;1652;51.318;6.202;2023-04-24T09:47:55;12.07;;;8.43;;
3280;SDS011;1652;51.318;6.202;2023-04-24T09:50:22;16.87;;;9.17;;
3280;SDS011;1652;51.318;6.202;2023-04-24T09:52:59;20.03;;;9.17;;
3280;SDS011;1652;51.318;6.202;2023-04-24T09:55:30;17.53;;;8.53;;
3280;SDS011;1652;51.318;6.202;2023-04-24T09:57:58;14.90;;;8.50;;
3280;SDS011;1652;51.318;6.202;2023-04-24T10:00:30;15.20;;;8.83;;
3280;SDS011;1652;51.318;6.202;2023-04-24T10:03:02;14.87;;;8.80;;
3280;SDS011;1652;51.318;6.202;2023-04-24T10:05:31;11.43;;;7.17;;
3280;SDS011;1652;51.318;6.202;2023-04-24T10:08:04;15.00;;;6.57;;
3280;SDS011;1652;51.318;6.202;2023-04-24T10:10:32;26.30;;;7.80;;
3280;SDS011;1652;51.318;6.202;2023-04-24T10:13:00;15.20;;;7.57;;
3280;SDS011;1652;51.318;6.202;2023-04-24T10:15:27;16.47;;;6.83;;
3280;SDS011;1652;51.318;6.202;2023-04-24T10:17:54;19.27;;;8.00;;
3280;SDS011;1652;51.318;6.202;2023-04-24T10:20:26;18.90;;;6.30;;
3280;SDS011;1652;51.318;6.202;2023-04-24T10:22:58;13.70;;;7.80;;
3280;SDS011;1652;51.318;6.202;2023-04-24T10:25:27;18.13;;;6.30;;
3280;SDS011;1652;51.318;6.202;2023-04-24T10:27:58;9.63;;;5.77;;
3280;SDS011;1652;51.318;6.202;2023-04-24T10:30:27;10.17;;;4.77;;
3280;SDS011;1652;51.318;6.202;2023-04-24T10:32:55;10.00;;;4.93;;
3280;SDS011;1652;51.318;6.202;2023-04-24T10:35:22;14.87;;;6.03;;
3280;SDS011;1652;51.318;6.202;2023-04-24T10:40:33;6.90;;;4.30;;
3280;SDS011;1652;51.318;6.202;2023-04-24T10:43:01;16.43;;;4.57;;
3280;SDS011;1652;51.318;6.202;2023-04-24T10:45:32;18.10;;;7.30;;
3280;SDS011;1652;51.318;6.202;2023-04-24T10:48:00;15.13;;;6.30;;
3280;SDS011;1652;51.318;6.202;2023-04-24T10:53:15;14.20;;;4.60;;
3280;SDS011;1652;51.318;6.202;2023-04-24T10:55:45;11.43;;;4.90;;
3280;SDS011;1652;51.318;6.202;2023-04-24T10:58:16;19.40;;;6.83;;
3280;SDS011;1652;51.318;6.202;2023-04-24T11:00:57;10.63;;;5.37;;
3280;SDS011;1652;51.318;6.202;2023-04-24T11:06:09;16.57;;;6.30;;
3280;SDS011;1652;51.318;6.202;2023-04-24T11:08:39;14.93;;;6.23;;
3280;SDS011;1652;51.318;6.202;2023-04-24T11:11:13;7.60;;;4.40;;
3280;SDS011;1652;51.318;6.202;2023-04-24T11:16:25;3.20;;;2.70;;
3280;SDS011;1652;51.318;6.202;2023-04-24T11:29:40;8.93;;;2.90;;
3280;SDS011;1652;51.318;6.202;2023-04-24T11:32:15;3.67;;;3.00;;
3280;SDS011;1652;51.318;6.202;2023-04-24T11:34:45;3.23;;;2.47;;
3280;SDS011;1652;51.318;6.202;2023-04-24T11:37:16;16.37;;;2.60;;
3280;SDS011;1652;51.318;6.202;2023-04-24T11:39:43;6.13;;;2.30;;
3280;SDS011;1652;51.318;6.202;2023-04-24T11:42:12;3.93;;;2.87;;
3280;SDS011;1652;51.318;6.202;2023-04-24T11:44:41;5.30;;;2.30;;
3280;SDS011;1652;51.318;6.202;2023-04-24T12:03:20;6.50;;;1.80;;
3280;SDS011;1652;51.318;6.202;2023-04-24T12:05:47;6.80;;;2.23;;
3280;SDS011;1652;51.318;6.202;2023-04-24T12:08:27;5.40;;;1.70;;
3280;SDS011;1652;51.318;6.202;2023-04-24T12:10:55;1.80;;;1.50;;
3280;SDS011;1652;51.318;6.202;2023-04-24T12:13:22;1.53;;;1.43;;
3280;SDS011;1652;51.318;6.202;2023-04-24T12:15:51;1.70;;;1.30;;
3280;SDS011;1652;51.318;6.202;2023-04-24T12:18:18;5.40;;;2.30;;
3280;SDS011;1652;51.318;6.202;2023-04-24T12:20:48;10.00;;;6.20;;
3280;SDS011;1652;51.318;6.202;2023-04-24T12:23:15;11.07;;;6.60;;
3280;SDS011;1652;51.318;6.202;2023-04-24T12:25:42;6.77;;;2.00;;
3280;SDS011;1652;51.318;6.202;2023-04-24T12:28:10;4.70;;;1.30;;
3280;SDS011;1652;51.318;6.202;2023-04-24T12:30:44;1.90;;;1.60;;
3280;SDS011;1652;51.318;6.202;2023-04-24T12:33:21;3.00;;;1.63;;
3280;SDS011;1652;51.318;6.202;2023-04-24T12:35:51;2.20;;;1.10;;
3280;SDS011;1652;51.318;6.202;2023-04-24T12:38:22;2.17;;;1.10;;
3280;SDS011;1652;51.318;6.202;2023-04-24T12:41:04;1.20;;;0.73;;
3280;SDS011;1652;51.318;6.202;2023-04-24T12:43:33;3.43;;;1.50;;
3280;SDS011;1652;51.318;6.202;2023-04-24T12:46:00;2.00;;;1.07;;
3280;SDS011;1652;51.318;6.202;2023-04-24T12:48:27;1.77;;;1.03;;
3280;SDS011;1652;51.318;6.202;2023-04-24T12:50:56;5.30;;;1.00;;
3280;SDS011;1652;51.318;6.202;2023-04-24T12:53:27;1.00;;;0.70;;
3280;SDS011;1652;51.318;6.202;2023-04-24T12:55:55;1.30;;;0.97;;
3280;SDS011;1652;51.318;6.202;2023-04-24T12:58:23;1.30;;;1.20;;
3280;SDS011;1652;51.318;6.202;2023-04-24T13:00:50;1.00;;;0.90;;
3280;SDS011;1652;51.318;6.202;2023-04-24T13:03:17;2.70;;;1.10;;
3280;SDS011;1652;51.318;6.202;2023-04-24T13:05:45;7.57;;;1.10;;
3280;SDS011;1652;51.318;6.202;2023-04-24T13:08:12;1.73;;;1.60;;
3280;SDS011;1652;51.318;6.202;2023-04-24T13:10:39;4.70;;;1.50;;
3280;SDS011;1652;51.318;6.202;2023-04-24T13:13:07;1.73;;;1.10;;
3280;SDS011;1652;51.318;6.202;2023-04-24T13:15:34;3.77;;;1.07;;
3280;SDS011;1652;51.318;6.202;2023-04-24T13:18:01;2.03;;;0.90;;
3280;SDS011;1652;51.318;6.202;2023-04-24T13:20:28;6.77;;;1.40;;
3280;SDS011;1652;51.318;6.202;2023-04-24T13:22:55;2.50;;;1.00;;
3280;SDS011;1652;51.318;6.202;2023-04-24T13:25:22;4.30;;;1.37;;
3280;SDS011;1652;51.318;6.202;2023-04-24T13:27:51;3.33;;;0.90;;
3280;SDS011;1652;51.318;6.202;2023-04-24T13:30:18;2.57;;;1.00;;
3280;SDS011;1652;51.318;6.202;2023-04-24T13:32:45;6.30;;;1.00;;
3280;SDS011;1652;51.318;6.202;2023-04-24T13:35:12;2.07;;;1.03;;
3280;SDS011;1652;51.318;6.202;2023-04-24T13:37:39;1.13;;;1.03;;
3280;SDS011;1652;51.318;6.202;2023-04-24T13:40:06;1.53;;;1.23;;
3280;SDS011;1652;51.318;6.202;2023-04-24T13:42:33;1.13;;;0.60;;
3280;SDS011;1652;51.318;6.202;2023-04-24T13:45:00;1.07;;;0.70;;
3280;SDS011;1652;51.318;6.202;2023-04-24T13:47:42;2.40;;;1.43;;
3280;SDS011;1652;51.318;6.202;2023-04-24T13:50:09;3.27;;;0.90;;
3280;SDS011;1652;51.318;6.202;2023-04-24T13:52:36;1.00;;;0.67;;
3280;SDS011;1652;51.318;6.202;2023-04-24T13:55:03;4.50;;;1.07;;
3280;SDS011;1652;51.318;6.202;2023-04-24T13:57:30;9.63;;;0.97;;
3280;SDS011;1652;51.318;6.202;2023-04-24T13:59:58;0.93;;;0.83;;
3280;SDS011;1652;51.318;6.202;2023-04-24T14:05:09;2.40;;;0.73;;
3280;SDS011;1652;51.318;6.202;2023-04-24T14:07:37;1.17;;;1.07;;
3280;SDS011;1652;51.318;6.202;2023-04-24T14:10:04;1.83;;;1.17;;
3280;SDS011;1652;51.318;6.202;2023-04-24T14:12:31;2.53;;;1.40;;
3280;SDS011;1652;51.318;6.202;2023-04-24T14:14:58;1.60;;;1.50;;
3280;SDS011;1652;51.318;6.202;2023-04-24T14:17:25;3.60;;;1.50;;
3280;SDS011;1652;51.318;6.202;2023-04-24T14:19:52;6.93;;;1.80;;
3280;SDS011;1652;51.318;6.202;2023-04-24T14:22:22;1.53;;;1.37;;
3280;SDS011;1652;51.318;6.202;2023-04-24T14:24:49;2.90;;;1.60;;
3280;SDS011;1652;51.318;6.202;2023-04-24T14:27:16;1.83;;;1.50;;
3280;SDS011;1652;51.318;6.202;2023-04-24T14:29:43;3.93;;;2.90;;
3280;SDS011;1652;51.318;6.202;2023-04-24T14:32:11;47.53;;;13.70;;
3280;SDS011;1652;51.318;6.202;2023-04-24T14:34:41;20.43;;;5.77;;
3280;SDS011;1652;51.318;6.202;2023-04-24T14:37:08;12.17;;;4.87;;
3280;SDS011;1652;51.318;6.202;2023-04-24T14:39:35;39.40;;;11.37;;
3280;SDS011;1652;51.318;6.202;2023-04-24T14:42:02;3.73;;;3.40;;
3280;SDS011;1652;51.318;6.202;2023-04-24T14:44:29;1.93;;;1.60;;
3280;SDS011;1652;51.318;6.202;2023-04-24T14:46:56;3.40;;;1.60;;
3280;SDS011;1652;51.318;6.202;2023-04-24T14:49:23;8.53;;;1.67;;
3280;SDS011;1652;51.318;6.202;2023-04-24T14:51:50;2.63;;;1.70;;
3280;SDS011;1652;51.318;6.202;2023-04-24T14:54:16;7.43;;;2.17;;
3280;SDS011;1652;51.318;6.202;2023-04-24T14:56:43;2.17;;;1.50;;
3280;SDS011;1652;51.318;6.202;2023-04-24T14:59:10;1.73;;;1.27;;
3280;SDS011;1652;51.318;6.202;2023-04-24T15:01:37;1.60;;;1.50;;
3280;SDS011;1652;51.318;6.202;2023-04-24T15:04:04;1.77;;;1.37;;
3280;SDS011;1652;51.318;6.202;2023-04-24T15:06:31;2.23;;;1.40;;
3280;SDS011;1652;51.318;6.202;2023-04-24T15:08:59;2.33;;;2.13;;
3280;SDS011;1652;51.318;6.202;2023-04-24T15:11:26;2.90;;;1.73;;
3280;SDS011;1652;51.318;6.202;2023-04-24T15:13:53;3.67;;;1.27;;
3280;SDS011;1652;51.318;6.202;2023-04-24T15:16:20;1.40;;;1.27;;
3280;SDS011;1652;51.318;6.202;2023-04-24T15:18:47;3.03;;;1.80;;
3280;SDS011;1652;51.318;6.202;2023-04-24T15:21:14;1.97;;;1.67;;
3280;SDS011;1652;51.318;6.202;2023-04-24T15:23:41;2.03;;;1.83;;
3280;SDS011;1652;51.318;6.202;2023-04-24T15:26:08;2.83;;;1.53;;
3280;SDS011;1652;51.318;6.202;2023-04-24T15:28:35;2.80;;;1.80;;
3280;SDS011;1652;51.318;6.202;2023-04-24T15:31:01;3.07;;;1.50;;
3280;SDS011;1652;51.318;6.202;2023-04-24T15:33:28;3.90;;;2.00;;
3280;SDS011;1652;51.318;6.202;2023-04-24T15:35:55;6.40;;;2.87;;
3280;SDS011;1652;51.318;6.202;2023-04-24T15:38:22;1.37;;;1.27;;
3280;SDS011;1652;51.318;6.202;2023-04-24T15:40:49;5.17;;;2.20;;
3280;SDS011;1652;51.318;6.202;2023-04-24T15:43:16;7.00;;;2.30;;
3280;SDS011;1652;51.318;6.202;2023-04-24T15:45:43;4.40;;;2.10;;
3280;SDS011;1652;51.318;6.202;2023-04-24T15:48:10;1.93;;;1.63;;
3280;SDS011;1652;51.318;6.202;2023-04-24T15:50:37;1.70;;;1.07;;
3280;SDS011;1652;51.318;6.202;2023-04-24T15:53:04;2.40;;;1.80;;
3280;SDS011;1652;51.318;6.202;2023-04-24T15:55:31;3.20;;;1.57;;